sensor_id;sensor_type;location;lat;lon;timestamp;pressure;altitude;pressure_sealevel;temperature;humidity
43701;BME280;58809;47.984;7.964;2022-12-18T00:01:20;98098.84;;;-7.97;100.00
43701;BME280;58809;47.984;7.964;2022-12-18T00:04:23;98094.63;;;-7.99;100.00
43701;BME280;58809;47.984;7.964;2022-12-18T00:07:25;98082.03;;;-8.08;100.00
43701;BME280;58809;47.984;7.964;2022-12-18T00:10:28;98081.22;;;-8.40;98.92
43701;BME280;58809;47.984;7.964;2022-12-18T00:13:29;98077.91;;;-8.42;99.36
43701;BME280;58809;47.984;7.964;2022-12-18T00:16:31;98078.16;;;-8.52;98.54
43701;BME280;58809;47.984;7.964;2022-12-18T00:19:34;98078.75;;;-8.75;96.86
43701;BME280;58809;47.984;7.964;2022-12-18T00:22:36;98096.97;;;-8.85;98.48
43701;BME280;58809;47.984;7.964;2022-12-18T00:25:37;98095.59;;;-8.97;98.60
43701;BME280;58809;47.984;7.964;2022-12-18T00:28:39;98106.00;;;-9.05;99.18
43701;BME280;58809;47.984;7.964;2022-12-18T00:31:42;98114.50;;;-9.03;98.62
43701;BME280;58809;47.984;7.964;2022-12-18T00:34:43;98111.25;;;-9.10;98.26
43701;BME280;58809;47.984;7.964;2022-12-18T00:37:45;98119.69;;;-9.04;98.08
43701;BME280;58809;47.984;7.964;2022-12-18T00:40:46;98101.66;;;-9.01;98.03
43701;BME280;58809;47.984;7.964;2022-12-18T00:43:48;98102.06;;;-9.18;96.50
43701;BME280;58809;47.984;7.964;2022-12-18T00:46:50;98111.94;;;-9.37;96.61
43701;BME280;58809;47.984;7.964;2022-12-18T00:49:51;98117.16;;;-9.42;97.48
43701;BME280;58809;47.984;7.964;2022-12-18T00:52:53;98106.81;;;-9.37;96.91
43701;BME280;58809;47.984;7.964;2022-12-18T00:55:54;98102.50;;;-9.37;95.50
43701;BME280;58809;47.984;7.964;2022-12-18T00:58:56;98108.56;;;-9.39;93.89
43701;BME280;58809;47.984;7.964;2022-12-18T01:01:58;98107.53;;;-9.32;94.55
43701;BME280;58809;47.984;7.964;2022-12-18T01:05:00;98105.66;;;-9.25;93.00
43701;BME280;58809;47.984;7.964;2022-12-18T01:08:02;98104.13;;;-9.33;92.28
43701;BME280;58809;47.984;7.964;2022-12-18T01:11:14;98110.16;;;-9.35;91.21
43701;BME280;58809;47.984;7.964;2022-12-18T01:14:16;98109.34;;;-9.36;90.73
43701;BME280;58809;47.984;7.964;2022-12-18T01:17:18;98112.81;;;-9.40;91.01
43701;BME280;58809;47.984;7.964;2022-12-18T01:20:19;98105.94;;;-9.38;90.71
43701;BME280;58809;47.984;7.964;2022-12-18T01:23:21;98116.28;;;-9.41;90.53
43701;BME280;58809;47.984;7.964;2022-12-18T01:26:24;98114.59;;;-9.43;90.36
43701;BME280;58809;47.984;7.964;2022-12-18T01:29:26;98117.13;;;-9.40;89.90
43701;BME280;58809;47.984;7.964;2022-12-18T01:32:30;98127.13;;;-9.30;89.72
43701;BME280;58809;47.984;7.964;2022-12-18T01:35:32;98127.91;;;-9.26;88.72
43701;BME280;58809;47.984;7.964;2022-12-18T01:38:36;98127.97;;;-9.31;88.54
43701;BME280;58809;47.984;7.964;2022-12-18T01:41:38;98129.56;;;-9.25;89.25
43701;BME280;58809;47.984;7.964;2022-12-18T01:48:17;98124.19;;;-9.14;88.12
43701;BME280;58809;47.984;7.964;2022-12-18T01:51:19;98125.94;;;-9.16;88.12
43701;BME280;58809;47.984;7.964;2022-12-18T01:54:21;98128.66;;;-9.22;88.78
43701;BME280;58809;47.984;7.964;2022-12-18T01:57:25;98126.31;;;-9.32;89.07
43701;BME280;58809;47.984;7.964;2022-12-18T02:00:28;98140.00;;;-9.33;88.69
43701;BME280;58809;47.984;7.964;2022-12-18T02:03:29;98128.84;;;-9.30;88.57
43701;BME280;58809;47.984;7.964;2022-12-18T02:06:37;98125.63;;;-9.40;88.25
43701;BME280;58809;47.984;7.964;2022-12-18T02:09:48;98136.63;;;-9.35;88.77
43701;BME280;58809;47.984;7.964;2022-12-18T02:23:13;98134.84;;;-9.31;89.29
43701;BME280;58809;47.984;7.964;2022-12-18T02:26:58;98150.22;;;-9.31;87.97
43701;BME280;58809;47.984;7.964;2022-12-18T02:30:03;98152.94;;;-9.37;88.49
43701;BME280;58809;47.984;7.964;2022-12-18T02:33:07;98159.69;;;-9.35;88.78
43701;BME280;58809;47.984;7.964;2022-12-18T02:36:12;98156.16;;;-9.29;88.71
43701;BME280;58809;47.984;7.964;2022-12-18T02:39:17;98149.56;;;-9.39;88.62
43701;BME280;58809;47.984;7.964;2022-12-18T02:42:32;98148.72;;;-9.41;88.37
43701;BME280;58809;47.984;7.964;2022-12-18T02:45:35;98140.88;;;-9.32;88.86
43701;BME280;58809;47.984;7.964;2022-12-18T02:48:37;98140.97;;;-9.38;87.69
43701;BME280;58809;47.984;7.964;2022-12-18T02:51:50;98146.34;;;-9.49;87.77
43701;BME280;58809;47.984;7.964;2022-12-18T02:55:12;98147.31;;;-9.55;87.74
43701;BME280;58809;47.984;7.964;2022-12-18T03:01:57;98147.53;;;-9.64;87.72
43701;BME280;58809;47.984;7.964;2022-12-18T03:05:10;98129.63;;;-9.65;88.10
43701;BME280;58809;47.984;7.964;2022-12-18T03:08:29;98136.50;;;-9.68;88.04
43701;BME280;58809;47.984;7.964;2022-12-18T03:11:34;98136.69;;;-9.75;88.02
43701;BME280;58809;47.984;7.964;2022-12-18T03:15:03;98132.50;;;-9.79;88.47
43701;BME280;58809;47.984;7.964;2022-12-18T03:18:29;98138.63;;;-9.87;87.74
43701;BME280;58809;47.984;7.964;2022-12-18T03:21:45;98136.38;;;-10.02;87.98
43701;BME280;58809;47.984;7.964;2022-12-18T03:24:51;98134.72;;;-10.04;88.96
43701;BME280;58809;47.984;7.964;2022-12-18T03:27:56;98138.13;;;-10.04;88.88
43701;BME280;58809;47.984;7.964;2022-12-18T03:31:01;98134.66;;;-10.01;89.02
43701;BME280;58809;47.984;7.964;2022-12-18T03:34:09;98144.03;;;-10.02;88.52
43701;BME280;58809;47.984;7.964;2022-12-18T03:37:18;98130.44;;;-10.04;88.39
43701;BME280;58809;47.984;7.964;2022-12-18T03:40:21;98135.59;;;-10.06;88.46
43701;BME280;58809;47.984;7.964;2022-12-18T03:43:36;98140.00;;;-10.12;88.68
43701;BME280;58809;47.984;7.964;2022-12-18T03:50:22;98140.41;;;-10.31;87.66
43701;BME280;58809;47.984;7.964;2022-12-18T03:53:37;98139.66;;;-10.37;87.13
43701;BME280;58809;47.984;7.964;2022-12-18T03:56:55;98145.75;;;-10.43;87.63
43701;BME280;58809;47.984;7.964;2022-12-18T04:00:13;98142.97;;;-10.31;88.14
43701;BME280;58809;47.984;7.964;2022-12-18T04:03:23;98143.19;;;-10.44;86.94
43701;BME280;58809;47.984;7.964;2022-12-18T04:06:28;98150.09;;;-10.48;87.49
43701;BME280;58809;47.984;7.964;2022-12-18T04:09:32;98142.41;;;-10.48;87.54
43701;BME280;58809;47.984;7.964;2022-12-18T04:12:37;98141.78;;;-10.59;86.33
43701;BME280;58809;47.984;7.964;2022-12-18T04:15:40;98146.88;;;-10.59;86.73
43701;BME280;58809;47.984;7.964;2022-12-18T04:18:46;98146.22;;;-10.69;86.68
43701;BME280;58809;47.984;7.964;2022-12-18T04:21:48;98144.50;;;-10.69;87.53
43701;BME280;58809;47.984;7.964;2022-12-18T04:24:51;98144.56;;;-10.73;87.00
43701;BME280;58809;47.984;7.964;2022-12-18T04:28:02;98143.81;;;-10.78;86.45
43701;BME280;58809;47.984;7.964;2022-12-18T04:31:04;98140.50;;;-10.83;86.74
43701;BME280;58809;47.984;7.964;2022-12-18T04:34:06;98134.47;;;-10.81;87.45
43701;BME280;58809;47.984;7.964;2022-12-18T04:37:14;98133.53;;;-10.75;87.81
43701;BME280;58809;47.984;7.964;2022-12-18T04:40:16;98134.41;;;-10.76;87.60
43701;BME280;58809;47.984;7.964;2022-12-18T04:43:20;98124.19;;;-10.76;86.96
43701;BME280;58809;47.984;7.964;2022-12-18T04:46:22;98130.00;;;-10.70;87.42
43701;BME280;58809;47.984;7.964;2022-12-18T04:49:24;98128.34;;;-10.72;87.28
43701;BME280;58809;47.984;7.964;2022-12-18T04:52:26;98123.19;;;-10.68;87.35
43701;BME280;58809;47.984;7.964;2022-12-18T04:55:27;98129.03;;;-10.62;87.63
43701;BME280;58809;47.984;7.964;2022-12-18T04:58:29;98134.16;;;-10.62;87.29
43701;BME280;58809;47.984;7.964;2022-12-18T05:01:30;98138.44;;;-10.65;86.83
43701;BME280;58809;47.984;7.964;2022-12-18T05:04:35;98138.47;;;-10.66;86.83
43701;BME280;58809;47.984;7.964;2022-12-18T05:07:37;98138.59;;;-10.74;86.48
43701;BME280;58809;47.984;7.964;2022-12-18T05:10:38;98138.59;;;-10.72;87.73
43701;BME280;58809;47.984;7.964;2022-12-18T05:13:40;98142.78;;;-10.70;87.06
43701;BME280;58809;47.984;7.964;2022-12-18T05:16:42;98135.09;;;-10.68;87.95
43701;BME280;58809;47.984;7.964;2022-12-18T05:19:44;98137.75;;;-10.73;86.91
43701;BME280;58809;47.984;7.964;2022-12-18T05:22:45;98124.38;;;-10.89;87.09
43701;BME280;58809;47.984;7.964;2022-12-18T05:25:59;98132.03;;;-10.87;86.53
43701;BME280;58809;47.984;7.964;2022-12-18T05:29:01;98130.31;;;-10.88;86.45
43701;BME280;58809;47.984;7.964;2022-12-18T05:32:02;98130.31;;;-10.88;87.10
43701;BME280;58809;47.984;7.964;2022-12-18T05:35:05;98131.19;;;-10.88;86.74
43701;BME280;58809;47.984;7.964;2022-12-18T05:38:07;98132.16;;;-10.95;86.35
43701;BME280;58809;47.984;7.964;2022-12-18T05:41:09;98137.31;;;-10.96;86.69
43701;BME280;58809;47.984;7.964;2022-12-18T05:44:10;98131.56;;;-11.11;86.27
43701;BME280;58809;47.984;7.964;2022-12-18T05:47:12;98131.50;;;-11.06;86.77
43701;BME280;58809;47.984;7.964;2022-12-18T05:50:14;98132.41;;;-11.12;86.53
43701;BME280;58809;47.984;7.964;2022-12-18T05:53:17;98128.31;;;-11.20;86.02
43701;BME280;58809;47.984;7.964;2022-12-18T05:56:22;98127.31;;;-11.12;87.31
43701;BME280;58809;47.984;7.964;2022-12-18T05:59:24;98134.16;;;-11.12;86.18
43701;BME280;58809;47.984;7.964;2022-12-18T06:02:25;98126.41;;;-11.06;86.57
43701;BME280;58809;47.984;7.964;2022-12-18T06:05:27;98139.09;;;-11.01;86.76
43701;BME280;58809;47.984;7.964;2022-12-18T06:08:29;98125.34;;;-10.96;87.19
43701;BME280;58809;47.984;7.964;2022-12-18T06:11:31;98131.13;;;-10.85;87.42
43701;BME280;58809;47.984;7.964;2022-12-18T06:14:32;98144.78;;;-10.84;87.22
43701;BME280;58809;47.984;7.964;2022-12-18T06:17:34;98152.31;;;-10.76;87.34
43701;BME280;58809;47.984;7.964;2022-12-18T06:20:36;98159.03;;;-10.72;87.67
43701;BME280;58809;47.984;7.964;2022-12-18T06:23:38;98159.91;;;-10.73;87.39
43701;BME280;58809;47.984;7.964;2022-12-18T06:26:40;98165.13;;;-10.78;87.12
43701;BME280;58809;47.984;7.964;2022-12-18T06:29:42;98173.47;;;-10.70;87.73
43701;BME280;58809;47.984;7.964;2022-12-18T06:32:44;98170.13;;;-10.73;87.20
43701;BME280;58809;47.984;7.964;2022-12-18T06:35:48;98186.38;;;-10.76;86.74
43701;BME280;58809;47.984;7.964;2022-12-18T06:38:50;98177.25;;;-10.89;86.97
43701;BME280;58809;47.984;7.964;2022-12-18T06:41:52;98184.16;;;-10.97;87.36
43701;BME280;58809;47.984;7.964;2022-12-18T06:44:53;98187.53;;;-10.94;88.40
43701;BME280;58809;47.984;7.964;2022-12-18T06:47:55;98186.53;;;-10.85;88.68
43701;BME280;58809;47.984;7.964;2022-12-18T06:50:58;98194.25;;;-10.88;88.26
43701;BME280;58809;47.984;7.964;2022-12-18T06:53:59;98193.41;;;-10.89;88.15
43701;BME280;58809;47.984;7.964;2022-12-18T06:57:01;98186.53;;;-10.85;88.85
43701;BME280;58809;47.984;7.964;2022-12-18T07:00:05;98199.09;;;-10.71;89.68
43701;BME280;58809;47.984;7.964;2022-12-18T07:03:07;98197.38;;;-10.71;89.16
43701;BME280;58809;47.984;7.964;2022-12-18T07:06:14;98200.13;;;-10.83;88.10
43701;BME280;58809;47.984;7.964;2022-12-18T07:09:16;98199.38;;;-10.90;87.88
43701;BME280;58809;47.984;7.964;2022-12-18T07:12:18;98200.97;;;-10.82;88.37
43701;BME280;58809;47.984;7.964;2022-12-18T07:15:19;98200.91;;;-10.78;88.57
43701;BME280;58809;47.984;7.964;2022-12-18T07:18:21;98203.31;;;-10.69;88.37
43701;BME280;58809;47.984;7.964;2022-12-18T07:21:23;98201.53;;;-10.63;88.45
43701;BME280;58809;47.984;7.964;2022-12-18T07:24:25;98186.19;;;-10.63;88.18
43701;BME280;58809;47.984;7.964;2022-12-18T07:27:26;98204.75;;;-10.52;88.54
43701;BME280;58809;47.984;7.964;2022-12-18T07:30:28;98203.00;;;-10.50;88.69
43701;BME280;58809;47.984;7.964;2022-12-18T07:33:30;98213.31;;;-10.55;87.80
43701;BME280;58809;47.984;7.964;2022-12-18T07:36:32;98212.56;;;-10.60;87.69
43701;BME280;58809;47.984;7.964;2022-12-18T07:39:34;98220.09;;;-10.52;88.52
43701;BME280;58809;47.984;7.964;2022-12-18T07:42:41;98216.53;;;-10.42;89.03
43701;BME280;58809;47.984;7.964;2022-12-18T07:45:43;98240.28;;;-10.37;88.18
43701;BME280;58809;47.984;7.964;2022-12-18T07:48:45;98253.00;;;-10.32;87.93
43701;BME280;58809;47.984;7.964;2022-12-18T07:51:50;98253.56;;;-10.16;88.93
43701;BME280;58809;47.984;7.964;2022-12-18T07:54:52;98261.88;;;-10.03;88.25
43701;BME280;58809;47.984;7.964;2022-12-18T07:57:53;98265.22;;;-10.00;87.30
43701;BME280;58809;47.984;7.964;2022-12-18T08:01:11;98273.56;;;-9.90;88.01
43701;BME280;58809;47.984;7.964;2022-12-18T08:04:13;98281.84;;;-9.76;87.72
43701;BME280;58809;47.984;7.964;2022-12-18T08:07:15;98279.19;;;-9.73;86.89
43701;BME280;58809;47.984;7.964;2022-12-18T08:10:16;98279.16;;;-9.71;87.25
43701;BME280;58809;47.984;7.964;2022-12-18T08:13:18;98289.25;;;-9.62;86.85
43701;BME280;58809;47.984;7.964;2022-12-18T08:16:21;98290.78;;;-9.53;86.80
43701;BME280;58809;47.984;7.964;2022-12-18T08:19:23;98277.91;;;-9.49;86.89
43701;BME280;58809;47.984;7.964;2022-12-18T08:22:25;98276.72;;;-9.32;86.98
43701;BME280;58809;47.984;7.964;2022-12-18T08:25:27;98269.53;;;-9.18;86.71
43701;BME280;58809;47.984;7.964;2022-12-18T08:28:28;98277.94;;;-9.10;86.64
43701;BME280;58809;47.984;7.964;2022-12-18T08:31:35;98271.59;;;-8.93;86.78
43701;BME280;58809;47.984;7.964;2022-12-18T08:34:37;98268.56;;;-8.73;87.48
43701;BME280;58809;47.984;7.964;2022-12-18T08:37:39;98258.78;;;-8.57;86.77
43701;BME280;58809;47.984;7.964;2022-12-18T08:40:42;98249.78;;;-8.41;86.92
43701;BME280;58809;47.984;7.964;2022-12-18T08:43:44;98235.75;;;-8.26;86.63
43701;BME280;58809;47.984;7.964;2022-12-18T08:47:07;98221.81;;;-8.17;86.83
43701;BME280;58809;47.984;7.964;2022-12-18T08:50:09;98213.59;;;-7.99;86.71
43701;BME280;58809;47.984;7.964;2022-12-18T08:53:12;98197.88;;;-7.86;86.69
43701;BME280;58809;47.984;7.964;2022-12-18T08:56:14;98206.66;;;-7.64;86.81
43701;BME280;58809;47.984;7.964;2022-12-18T08:59:18;98198.34;;;-7.44;86.62
43701;BME280;58809;47.984;7.964;2022-12-18T09:02:21;98199.00;;;-7.36;86.38
43701;BME280;58809;47.984;7.964;2022-12-18T09:05:23;98203.03;;;-7.27;86.75
43701;BME280;58809;47.984;7.964;2022-12-18T09:08:25;98190.91;;;-7.23;86.83
43701;BME280;58809;47.984;7.964;2022-12-18T09:11:28;98207.69;;;-7.11;87.06
43701;BME280;58809;47.984;7.964;2022-12-18T09:14:30;98214.88;;;-6.94;88.14
43701;BME280;58809;47.984;7.964;2022-12-18T09:17:32;98214.25;;;-6.74;88.13
43701;BME280;58809;47.984;7.964;2022-12-18T09:20:33;98215.56;;;-6.61;88.98
43701;BME280;58809;47.984;7.964;2022-12-18T09:23:35;98218.50;;;-6.47;89.14
43701;BME280;58809;47.984;7.964;2022-12-18T09:26:37;98217.22;;;-6.33;88.20
43701;BME280;58809;47.984;7.964;2022-12-18T09:29:39;98221.28;;;-6.26;88.40
43701;BME280;58809;47.984;7.964;2022-12-18T09:32:41;98225.22;;;-6.16;88.58
43701;BME280;58809;47.984;7.964;2022-12-18T09:35:44;98229.13;;;-6.04;88.60
43701;BME280;58809;47.984;7.964;2022-12-18T09:38:46;98232.19;;;-5.94;88.12
43701;BME280;58809;47.984;7.964;2022-12-18T09:41:52;98236.50;;;-5.95;87.91
43701;BME280;58809;47.984;7.964;2022-12-18T09:44:58;98229.97;;;-5.80;88.66
43701;BME280;58809;47.984;7.964;2022-12-18T09:48:03;98237.94;;;-5.63;88.71
43701;BME280;58809;47.984;7.964;2022-12-18T09:51:44;98237.97;;;-5.64;88.43
43701;BME280;58809;47.984;7.964;2022-12-18T09:55:28;98244.00;;;-5.64;89.31
43701;BME280;58809;47.984;7.964;2022-12-18T10:01:56;98252.47;;;-5.13;90.63
43701;BME280;58809;47.984;7.964;2022-12-18T10:05:11;98260.97;;;-4.87;89.67
43701;BME280;58809;47.984;7.964;2022-12-18T10:08:36;98251.31;;;-4.84;88.24
43701;BME280;58809;47.984;7.964;2022-12-18T10:15:24;98250.66;;;-4.45;88.61
43701;BME280;58809;47.984;7.964;2022-12-18T10:18:54;98255.19;;;-4.29;88.69
43701;BME280;58809;47.984;7.964;2022-12-18T10:25:34;98243.72;;;-4.01;88.68
43701;BME280;58809;47.984;7.964;2022-12-18T10:28:40;98237.75;;;-3.83;89.16
43701;BME280;58809;47.984;7.964;2022-12-18T10:31:43;98229.22;;;-3.64;88.39
43701;BME280;58809;47.984;7.964;2022-12-18T10:34:46;98219.25;;;-3.53;88.23
43701;BME280;58809;47.984;7.964;2022-12-18T10:41:26;98216.28;;;-3.26;88.97
43701;BME280;58809;47.984;7.964;2022-12-18T10:44:29;98210.69;;;-3.17;88.05
43701;BME280;58809;47.984;7.964;2022-12-18T10:47:33;98216.38;;;-3.09;88.80
43701;BME280;58809;47.984;7.964;2022-12-18T10:50:36;98208.38;;;-2.85;89.12
43701;BME280;58809;47.984;7.964;2022-12-18T10:57:28;98195.00;;;-2.24;88.90
43701;BME280;58809;47.984;7.964;2022-12-18T11:00:31;98183.34;;;-1.98;88.20
43701;BME280;58809;47.984;7.964;2022-12-18T11:03:38;98190.38;;;-1.84;87.70
43701;BME280;58809;47.984;7.964;2022-12-18T11:06:53;98178.50;;;-1.88;88.00
43701;BME280;58809;47.984;7.964;2022-12-18T11:10:02;98169.22;;;-1.76;87.43
43701;BME280;58809;47.984;7.964;2022-12-18T11:13:15;98173.56;;;-1.59;86.93
43701;BME280;58809;47.984;7.964;2022-12-18T11:16:21;98169.13;;;-1.41;87.03
43701;BME280;58809;47.984;7.964;2022-12-18T11:19:34;98165.63;;;-1.24;87.12
43701;BME280;58809;47.984;7.964;2022-12-18T11:22:37;98165.88;;;-1.13;88.18
43701;BME280;58809;47.984;7.964;2022-12-18T11:25:40;98164.69;;;-0.91;88.34
43701;BME280;58809;47.984;7.964;2022-12-18T11:29:07;98171.13;;;-0.83;87.87
43701;BME280;58809;47.984;7.964;2022-12-18T11:32:24;98157.53;;;-0.72;87.73
43701;BME280;58809;47.984;7.964;2022-12-18T11:35:50;98160.69;;;-0.67;87.93
43701;BME280;58809;47.984;7.964;2022-12-18T11:38:53;98160.91;;;-0.55;88.75
43701;BME280;58809;47.984;7.964;2022-12-18T11:42:02;98158.16;;;-0.52;88.22
43701;BME280;58809;47.984;7.964;2022-12-18T11:48:21;98163.47;;;-0.40;88.97
43701;BME280;58809;47.984;7.964;2022-12-18T11:51:34;98177.06;;;-0.34;90.43
43701;BME280;58809;47.984;7.964;2022-12-18T11:54:38;98166.56;;;-0.33;88.91
43701;BME280;58809;47.984;7.964;2022-12-18T11:57:55;98162.94;;;-0.61;89.51
43701;BME280;58809;47.984;7.964;2022-12-18T12:17:43;98140.72;;;-0.97;91.13
43701;BME280;58809;47.984;7.964;2022-12-18T12:24:12;98138.44;;;-0.87;90.19
43701;BME280;58809;47.984;7.964;2022-12-18T12:27:30;98140.56;;;-1.09;90.09
43701;BME280;58809;47.984;7.964;2022-12-18T12:34:17;98135.88;;;-1.19;90.51
43701;BME280;58809;47.984;7.964;2022-12-18T12:41:02;98152.81;;;-1.11;90.96
43701;BME280;58809;47.984;7.964;2022-12-18T12:44:09;98143.56;;;-1.01;89.73
43701;BME280;58809;47.984;7.964;2022-12-18T12:47:21;98150.75;;;-0.90;89.22
43701;BME280;58809;47.984;7.964;2022-12-18T12:50:25;98159.22;;;-0.87;88.60
43701;BME280;58809;47.984;7.964;2022-12-18T12:53:31;98134.66;;;-0.81;88.73
43701;BME280;58809;47.984;7.964;2022-12-18T13:00:07;98156.38;;;-0.52;87.87
43701;BME280;58809;47.984;7.964;2022-12-18T13:06:45;98141.75;;;-0.69;87.32
43701;BME280;58809;47.984;7.964;2022-12-18T13:13:15;98139.28;;;-0.56;87.95
43701;BME280;58809;47.984;7.964;2022-12-18T13:16:25;98132.66;;;-0.46;86.85
43701;BME280;58809;47.984;7.964;2022-12-18T13:19:31;98130.59;;;-0.41;86.67
43701;BME280;58809;47.984;7.964;2022-12-18T13:22:37;98125.88;;;-0.34;86.86
43701;BME280;58809;47.984;7.964;2022-12-18T13:25:40;98124.75;;;-0.30;87.28
43701;BME280;58809;47.984;7.964;2022-12-18T13:28:50;98124.03;;;-0.17;86.95
43701;BME280;58809;47.984;7.964;2022-12-18T13:32:01;98116.72;;;0.04;87.02
43701;BME280;58809;47.984;7.964;2022-12-18T13:41:33;98106.38;;;0.31;86.01
43701;BME280;58809;47.984;7.964;2022-12-18T13:44:40;98105.66;;;0.29;86.69
43701;BME280;58809;47.984;7.964;2022-12-18T13:47:43;98101.38;;;0.28;86.56
43701;BME280;58809;47.984;7.964;2022-12-18T13:51:00;98102.13;;;0.15;86.70
43701;BME280;58809;47.984;7.964;2022-12-18T13:54:30;98107.81;;;0.08;86.76
43701;BME280;58809;47.984;7.964;2022-12-18T13:57:37;98108.28;;;0.00;87.43
43701;BME280;58809;47.984;7.964;2022-12-18T14:00:43;98110.00;;;-0.29;88.65
43701;BME280;58809;47.984;7.964;2022-12-18T14:03:46;98109.03;;;-0.43;89.56
43701;BME280;58809;47.984;7.964;2022-12-18T14:06:51;98103.69;;;-0.40;90.38
43701;BME280;58809;47.984;7.964;2022-12-18T14:09:58;98098.47;;;-0.40;91.17
43701;BME280;58809;47.984;7.964;2022-12-18T14:13:27;98098.19;;;-0.49;90.95
43701;BME280;58809;47.984;7.964;2022-12-18T14:16:31;98109.28;;;-0.62;90.90
43701;BME280;58809;47.984;7.964;2022-12-18T14:19:33;98101.22;;;-0.87;89.77
43701;BME280;58809;47.984;7.964;2022-12-18T14:22:35;98109.72;;;-1.00;90.99
43701;BME280;58809;47.984;7.964;2022-12-18T14:25:37;98102.19;;;-1.20;91.26
43701;BME280;58809;47.984;7.964;2022-12-18T14:28:43;98113.59;;;-1.39;92.87
43701;BME280;58809;47.984;7.964;2022-12-18T14:31:45;98108.31;;;-1.53;93.00
43701;BME280;58809;47.984;7.964;2022-12-18T14:34:49;98097.44;;;-1.76;94.26
43701;BME280;58809;47.984;7.964;2022-12-18T14:37:51;98107.06;;;-1.78;95.13
43701;BME280;58809;47.984;7.964;2022-12-18T14:41:04;98101.09;;;-1.96;94.74
43701;BME280;58809;47.984;7.964;2022-12-18T14:44:07;98102.47;;;-2.06;96.01
43701;BME280;58809;47.984;7.964;2022-12-18T14:47:15;98099.13;;;-2.08;96.92
43701;BME280;58809;47.984;7.964;2022-12-18T14:50:17;98100.88;;;-2.08;97.36
43701;BME280;58809;47.984;7.964;2022-12-18T14:53:20;98103.78;;;-2.15;96.51
43701;BME280;58809;47.984;7.964;2022-12-18T14:56:32;98092.09;;;-2.39;97.65
43701;BME280;58809;47.984;7.964;2022-12-18T14:59:35;98111.59;;;-2.32;98.33
43701;BME280;58809;47.984;7.964;2022-12-18T15:02:36;98108.13;;;-2.48;98.59
43701;BME280;58809;47.984;7.964;2022-12-18T15:05:42;98121.16;;;-2.50;99.70
43701;BME280;58809;47.984;7.964;2022-12-18T15:08:47;98127.00;;;-2.46;100.00
43701;BME280;58809;47.984;7.964;2022-12-18T15:11:49;98133.41;;;-2.54;99.91
43701;BME280;58809;47.984;7.964;2022-12-18T15:14:56;98128.38;;;-2.57;100.00
43701;BME280;58809;47.984;7.964;2022-12-18T15:18:04;98137.28;;;-2.62;100.00
43701;BME280;58809;47.984;7.964;2022-12-18T15:21:10;98137.84;;;-2.56;100.00
43701;BME280;58809;47.984;7.964;2022-12-18T15:24:18;98142.19;;;-2.56;100.00
43701;BME280;58809;47.984;7.964;2022-12-18T15:27:34;98149.09;;;-2.57;100.00
43701;BME280;58809;47.984;7.964;2022-12-18T15:30:37;98153.78;;;-2.63;100.00
43701;BME280;58809;47.984;7.964;2022-12-18T15:33:43;98160.53;;;-2.61;100.00
43701;BME280;58809;47.984;7.964;2022-12-18T15:36:47;98164.97;;;-2.63;100.00
43701;BME280;58809;47.984;7.964;2022-12-18T15:39:49;98158.28;;;-2.67;100.00
43701;BME280;58809;47.984;7.964;2022-12-18T15:42:53;98164.41;;;-2.69;100.00
43701;BME280;58809;47.984;7.964;2022-12-18T15:46:22;98164.19;;;-2.82;100.00
43701;BME280;58809;47.984;7.964;2022-12-18T15:49:24;98159.63;;;-2.77;100.00
43701;BME280;58809;47.984;7.964;2022-12-18T15:52:26;98166.09;;;-2.68;100.00
43701;BME280;58809;47.984;7.964;2022-12-18T15:55:27;98169.25;;;-2.62;100.00
43701;BME280;58809;47.984;7.964;2022-12-18T15:58:54;98167.09;;;-2.71;100.00
43701;BME280;58809;47.984;7.964;2022-12-18T16:02:00;98175.78;;;-2.72;100.00
43701;BME280;58809;47.984;7.964;2022-12-18T16:05:02;98171.28;;;-2.68;100.00
43701;BME280;58809;47.984;7.964;2022-12-18T16:08:04;98163.44;;;-2.67;100.00
43701;BME280;58809;47.984;7.964;2022-12-18T16:11:29;98171.66;;;-2.59;100.00
43701;BME280;58809;47.984;7.964;2022-12-18T16:14:42;98166.41;;;-2.57;100.00
43701;BME280;58809;47.984;7.964;2022-12-18T16:17:46;98160.47;;;-2.59;100.00
43701;BME280;58809;47.984;7.964;2022-12-18T16:20:48;98168.94;;;-2.56;100.00
43701;BME280;58809;47.984;7.964;2022-12-18T16:23:50;98164.91;;;-2.61;100.00
43701;BME280;58809;47.984;7.964;2022-12-18T16:26:53;98157.88;;;-2.59;100.00
43701;BME280;58809;47.984;7.964;2022-12-18T16:29:55;98147.59;;;-2.61;100.00
43701;BME280;58809;47.984;7.964;2022-12-18T16:32:57;98153.16;;;-2.51;100.00
43701;BME280;58809;47.984;7.964;2022-12-18T16:35:59;98148.81;;;-2.50;100.00
43701;BME280;58809;47.984;7.964;2022-12-18T16:39:01;98144.41;;;-2.48;100.00
43701;BME280;58809;47.984;7.964;2022-12-18T16:42:10;98147.81;;;-2.48;100.00
43701;BME280;58809;47.984;7.964;2022-12-18T16:45:16;98138.47;;;-2.50;100.00
43701;BME280;58809;47.984;7.964;2022-12-18T16:48:18;98139.34;;;-2.52;100.00
43701;BME280;58809;47.984;7.964;2022-12-18T16:51:19;98142.72;;;-2.49;100.00
43701;BME280;58809;47.984;7.964;2022-12-18T16:54:21;98141.06;;;-2.50;100.00
43701;BME280;58809;47.984;7.964;2022-12-18T16:57:23;98140.97;;;-2.49;100.00
43701;BME280;58809;47.984;7.964;2022-12-18T17:00:25;98139.28;;;-2.50;100.00
43701;BME280;58809;47.984;7.964;2022-12-18T17:03:27;98129.13;;;-2.55;100.00
43701;BME280;58809;47.984;7.964;2022-12-18T17:06:32;98138.38;;;-2.49;100.00
43701;BME280;58809;47.984;7.964;2022-12-18T17:09:34;98136.63;;;-2.48;100.00
43701;BME280;58809;47.984;7.964;2022-12-18T17:12:36;98129.75;;;-2.49;100.00
43701;BME280;58809;47.984;7.964;2022-12-18T17:15:38;98132.97;;;-2.44;100.00
43701;BME280;58809;47.984;7.964;2022-12-18T17:18:39;98128.53;;;-2.42;100.00
43701;BME280;58809;47.984;7.964;2022-12-18T17:21:43;98123.34;;;-2.42;100.00
43701;BME280;58809;47.984;7.964;2022-12-18T17:24:45;98134.47;;;-2.40;100.00
43701;BME280;58809;47.984;7.964;2022-12-18T17:27:49;98120.59;;;-2.39;100.00
43701;BME280;58809;47.984;7.964;2022-12-18T17:30:55;98115.44;;;-2.39;100.00
43701;BME280;58809;47.984;7.964;2022-12-18T17:33:57;98115.97;;;-2.33;100.00
43701;BME280;58809;47.984;7.964;2022-12-18T17:36:59;98108.72;;;-2.43;100.00
43701;BME280;58809;47.984;7.964;2022-12-18T17:40:01;98098.66;;;-2.49;100.00
43701;BME280;58809;47.984;7.964;2022-12-18T17:43:03;98092.41;;;-2.45;100.00